Terminal Aerodrome Forecast
Issued by NWS Goodland, KS

Home | Current Version | Previous Version | Text Only | Print | Product List | Glossary On
Versions: 1 2 3 4 5 6 7 8 9 10 11 12 13 14 15 16 17 18 19 20 21 22 23
000
FTUS43 KGLD 240520
TAFGLD
TAF
KGLD 240520Z 2406/2506 15010KT P6SM SCT110 BKN200
     FM240700 16010KT 3SM BR OVC004
      TEMPO 2408/2412 1SM BR
     FM241200 20007KT 2SM BR OVC004
     FM241600 VRB05KT P6SM SCT007 BKN012
     FM242100 03005KT P6SM VCTS SCT060CB BKN120
     FM250000 36010KT P6SM FEW120 SCT200
     FM250400 27006KT P6SM SCT120 SCT250=

USA.gov is the U.S. government's official web portal to all federal, state and local government web resources and services.